sensor_id;sensor_type;location;lat;lon;timestamp;temperature;humidity
10312;DHT22;5201;48.776;9.128;2022-07-11T00:02:13;16.90;98.10
10312;DHT22;5201;48.776;9.128;2022-07-11T00:04:39;17.00;97.90
10312;DHT22;5201;48.776;9.128;2022-07-11T00:07:06;17.00;97.80
10312;DHT22;5201;48.776;9.128;2022-07-11T00:09:32;17.00;97.40
10312;DHT22;5201;48.776;9.128;2022-07-11T00:11:59;17.00;97.30
10312;DHT22;5201;48.776;9.128;2022-07-11T00:14:25;17.10;97.60
10312;DHT22;5201;48.776;9.128;2022-07-11T00:16:51;17.10;97.90
10312;DHT22;5201;48.776;9.128;2022-07-11T00:19:19;17.20;97.80
10312;DHT22;5201;48.776;9.128;2022-07-11T00:21:44;17.30;98.00
10312;DHT22;5201;48.776;9.128;2022-07-11T00:24:10;17.30;98.60
10312;DHT22;5201;48.776;9.128;2022-07-11T00:26:37;17.30;98.20
10312;DHT22;5201;48.776;9.128;2022-07-11T00:29:06;17.40;98.00
10312;DHT22;5201;48.776;9.128;2022-07-11T00:31:32;17.40;98.10
10312;DHT22;5201;48.776;9.128;2022-07-11T00:33:58;17.40;98.70
10312;DHT22;5201;48.776;9.128;2022-07-11T00:36:24;17.40;97.60
10312;DHT22;5201;48.776;9.128;2022-07-11T00:38:49;17.20;97.20
10312;DHT22;5201;48.776;9.128;2022-07-11T00:41:15;17.20;97.90
10312;DHT22;5201;48.776;9.128;2022-07-11T00:43:42;17.20;97.70
10312;DHT22;5201;48.776;9.128;2022-07-11T00:46:09;17.20;97.70
10312;DHT22;5201;48.776;9.128;2022-07-11T00:48:36;17.20;97.90
10312;DHT22;5201;48.776;9.128;2022-07-11T00:51:05;17.10;97.80
10312;DHT22;5201;48.776;9.128;2022-07-11T00:53:31;17.20;98.00
10312;DHT22;5201;48.776;9.128;2022-07-11T00:55:58;17.00;98.20
10312;DHT22;5201;48.776;9.128;2022-07-11T00:58:25;17.00;98.30
10312;DHT22;5201;48.776;9.128;2022-07-11T01:00:51;17.00;98.30
10312;DHT22;5201;48.776;9.128;2022-07-11T01:03:16;16.90;98.50
10312;DHT22;5201;48.776;9.128;2022-07-11T01:05:42;16.90;98.60
10312;DHT22;5201;48.776;9.128;2022-07-11T01:08:08;16.90;98.70
10312;DHT22;5201;48.776;9.128;2022-07-11T01:10:34;17.00;98.70
10312;DHT22;5201;48.776;9.128;2022-07-11T01:13:00;16.80;98.80
10312;DHT22;5201;48.776;9.128;2022-07-11T01:15:26;16.70;98.90
10312;DHT22;5201;48.776;9.128;2022-07-11T01:17:51;16.70;99.00
10312;DHT22;5201;48.776;9.128;2022-07-11T01:20:20;16.70;99.10
10312;DHT22;5201;48.776;9.128;2022-07-11T01:22:52;16.70;98.90
10312;DHT22;5201;48.776;9.128;2022-07-11T01:25:18;16.60;99.10
10312;DHT22;5201;48.776;9.128;2022-07-11T01:30:24;16.50;99.20
10312;DHT22;5201;48.776;9.128;2022-07-11T01:32:51;16.50;99.30
10312;DHT22;5201;48.776;9.128;2022-07-11T01:35:17;16.60;99.50
10312;DHT22;5201;48.776;9.128;2022-07-11T01:37:43;16.60;99.60
10312;DHT22;5201;48.776;9.128;2022-07-11T01:40:09;16.60;99.40
10312;DHT22;5201;48.776;9.128;2022-07-11T01:42:35;16.60;99.60
10312;DHT22;5201;48.776;9.128;2022-07-11T01:45:01;16.50;99.60
10312;DHT22;5201;48.776;9.128;2022-07-11T01:47:26;16.60;99.90
10312;DHT22;5201;48.776;9.128;2022-07-11T01:49:52;16.50;99.90
10312;DHT22;5201;48.776;9.128;2022-07-11T01:52:17;16.50;99.90
10312;DHT22;5201;48.776;9.128;2022-07-11T01:54:43;16.50;99.90
10312;DHT22;5201;48.776;9.128;2022-07-11T01:57:09;16.50;99.90
10312;DHT22;5201;48.776;9.128;2022-07-11T01:59:35;16.50;99.90
10312;DHT22;5201;48.776;9.128;2022-07-11T02:02:01;16.50;99.90
10312;DHT22;5201;48.776;9.128;2022-07-11T02:04:27;16.50;99.90
10312;DHT22;5201;48.776;9.128;2022-07-11T02:06:53;16.50;99.80
10312;DHT22;5201;48.776;9.128;2022-07-11T02:09:18;16.50;99.90
10312;DHT22;5201;48.776;9.128;2022-07-11T02:11:44;16.50;99.90
10312;DHT22;5201;48.776;9.128;2022-07-11T02:14:10;16.90;99.90
10312;DHT22;5201;48.776;9.128;2022-07-11T02:16:35;16.60;99.90
10312;DHT22;5201;48.776;9.128;2022-07-11T02:19:01;16.60;99.90
10312;DHT22;5201;48.776;9.128;2022-07-11T02:21:26;16.70;99.90
10312;DHT22;5201;48.776;9.128;2022-07-11T02:23:52;16.70;99.90
10312;DHT22;5201;48.776;9.128;2022-07-11T02:26:18;16.70;99.90
10312;DHT22;5201;48.776;9.128;2022-07-11T02:28:43;16.70;99.90
10312;DHT22;5201;48.776;9.128;2022-07-11T02:31:10;16.70;99.90
10312;DHT22;5201;48.776;9.128;2022-07-11T02:33:35;16.60;99.90
10312;DHT22;5201;48.776;9.128;2022-07-11T02:36:01;16.70;99.90
10312;DHT22;5201;48.776;9.128;2022-07-11T02:38:27;16.70;99.90
10312;DHT22;5201;48.776;9.128;2022-07-11T02:40:53;16.70;99.90
10312;DHT22;5201;48.776;9.128;2022-07-11T02:43:19;16.70;99.90
10312;DHT22;5201;48.776;9.128;2022-07-11T02:45:44;16.70;99.90
10312;DHT22;5201;48.776;9.128;2022-07-11T02:48:10;16.70;99.90
10312;DHT22;5201;48.776;9.128;2022-07-11T02:50:36;16.70;99.90
10312;DHT22;5201;48.776;9.128;2022-07-11T02:53:02;16.80;99.90
10312;DHT22;5201;48.776;9.128;2022-07-11T02:55:27;16.80;99.90
10312;DHT22;5201;48.776;9.128;2022-07-11T02:57:53;16.90;99.90
10312;DHT22;5201;48.776;9.128;2022-07-11T03:00:19;16.90;99.90
10312;DHT22;5201;48.776;9.128;2022-07-11T03:02:45;16.90;99.90
10312;DHT22;5201;48.776;9.128;2022-07-11T03:05:11;16.90;99.90
10312;DHT22;5201;48.776;9.128;2022-07-11T03:07:38;16.90;99.90
10312;DHT22;5201;48.776;9.128;2022-07-11T03:10:04;17.00;99.90
10312;DHT22;5201;48.776;9.128;2022-07-11T03:12:30;17.00;99.90
10312;DHT22;5201;48.776;9.128;2022-07-11T03:14:56;17.00;99.90
10312;DHT22;5201;48.776;9.128;2022-07-11T03:17:22;17.00;99.90
10312;DHT22;5201;48.776;9.128;2022-07-11T03:19:48;17.00;99.90
10312;DHT22;5201;48.776;9.128;2022-07-11T03:22:17;16.90;99.90
10312;DHT22;5201;48.776;9.128;2022-07-11T03:24:43;17.00;99.90
10312;DHT22;5201;48.776;9.128;2022-07-11T03:27:09;17.00;99.90
10312;DHT22;5201;48.776;9.128;2022-07-11T03:29:35;17.00;99.90
10312;DHT22;5201;48.776;9.128;2022-07-11T03:32:01;17.00;99.90
10312;DHT22;5201;48.776;9.128;2022-07-11T03:34:27;17.10;99.90
10312;DHT22;5201;48.776;9.128;2022-07-11T03:36:53;17.10;99.90
10312;DHT22;5201;48.776;9.128;2022-07-11T03:39:19;17.10;99.90
10312;DHT22;5201;48.776;9.128;2022-07-11T03:41:46;17.00;99.90
10312;DHT22;5201;48.776;9.128;2022-07-11T03:44:12;17.10;99.90
10312;DHT22;5201;48.776;9.128;2022-07-11T03:46:38;17.10;99.90
10312;DHT22;5201;48.776;9.128;2022-07-11T03:49:03;17.00;99.90
10312;DHT22;5201;48.776;9.128;2022-07-11T03:51:30;17.10;99.90
10312;DHT22;5201;48.776;9.128;2022-07-11T03:53:56;17.10;99.90
10312;DHT22;5201;48.776;9.128;2022-07-11T03:56:22;17.10;99.90
10312;DHT22;5201;48.776;9.128;2022-07-11T03:58:50;17.10;99.90
10312;DHT22;5201;48.776;9.128;2022-07-11T04:01:16;17.10;99.90
10312;DHT22;5201;48.776;9.128;2022-07-11T04:03:42;17.10;99.90
10312;DHT22;5201;48.776;9.128;2022-07-11T04:06:08;17.10;99.90
10312;DHT22;5201;48.776;9.128;2022-07-11T04:08:34;17.10;99.90
10312;DHT22;5201;48.776;9.128;2022-07-11T04:11:00;17.10;99.90
10312;DHT22;5201;48.776;9.128;2022-07-11T04:13:25;17.30;99.90
10312;DHT22;5201;48.776;9.128;2022-07-11T04:15:51;17.20;99.90
10312;DHT22;5201;48.776;9.128;2022-07-11T04:18:16;17.20;99.90
10312;DHT22;5201;48.776;9.128;2022-07-11T04:20:42;17.30;99.90
10312;DHT22;5201;48.776;9.128;2022-07-11T04:23:08;17.50;99.90
10312;DHT22;5201;48.776;9.128;2022-07-11T04:25:34;17.30;99.90
10312;DHT22;5201;48.776;9.128;2022-07-11T04:28:00;17.20;99.90
10312;DHT22;5201;48.776;9.128;2022-07-11T04:30:26;17.30;99.90
10312;DHT22;5201;48.776;9.128;2022-07-11T04:32:51;17.30;99.90
10312;DHT22;5201;48.776;9.128;2022-07-11T04:35:17;17.30;99.90
10312;DHT22;5201;48.776;9.128;2022-07-11T04:37:43;17.30;99.90
10312;DHT22;5201;48.776;9.128;2022-07-11T04:40:10;17.50;99.90
10312;DHT22;5201;48.776;9.128;2022-07-11T04:42:35;17.40;99.90
10312;DHT22;5201;48.776;9.128;2022-07-11T04:45:01;17.40;99.90
10312;DHT22;5201;48.776;9.128;2022-07-11T04:47:26;17.40;99.90
10312;DHT22;5201;48.776;9.128;2022-07-11T04:49:52;17.40;99.90
10312;DHT22;5201;48.776;9.128;2022-07-11T04:52:18;17.40;99.90
10312;DHT22;5201;48.776;9.128;2022-07-11T04:54:43;17.40;99.90
10312;DHT22;5201;48.776;9.128;2022-07-11T04:57:09;17.40;99.90
10312;DHT22;5201;48.776;9.128;2022-07-11T04:59:35;17.50;99.90
10312;DHT22;5201;48.776;9.128;2022-07-11T05:02:01;17.60;99.90
10312;DHT22;5201;48.776;9.128;2022-07-11T05:04:26;17.70;99.90
10312;DHT22;5201;48.776;9.128;2022-07-11T05:06:52;17.70;99.90
10312;DHT22;5201;48.776;9.128;2022-07-11T05:09:18;17.80;99.90
10312;DHT22;5201;48.776;9.128;2022-07-11T05:11:43;17.80;99.90
10312;DHT22;5201;48.776;9.128;2022-07-11T05:14:09;17.90;99.90
10312;DHT22;5201;48.776;9.128;2022-07-11T05:16:34;18.00;99.90
10312;DHT22;5201;48.776;9.128;2022-07-11T05:19:00;18.10;99.90
10312;DHT22;5201;48.776;9.128;2022-07-11T05:21:26;19.30;99.90
10312;DHT22;5201;48.776;9.128;2022-07-11T05:23:51;18.20;99.90
10312;DHT22;5201;48.776;9.128;2022-07-11T05:26:17;18.30;99.90
10312;DHT22;5201;48.776;9.128;2022-07-11T05:28:43;18.30;99.90
10312;DHT22;5201;48.776;9.128;2022-07-11T05:31:09;18.40;99.90
10312;DHT22;5201;48.776;9.128;2022-07-11T05:33:34;18.40;99.90
10312;DHT22;5201;48.776;9.128;2022-07-11T05:36:01;18.40;99.90
10312;DHT22;5201;48.776;9.128;2022-07-11T05:38:26;18.40;99.90
10312;DHT22;5201;48.776;9.128;2022-07-11T05:40:52;18.50;99.90
10312;DHT22;5201;48.776;9.128;2022-07-11T05:43:18;18.50;99.90
10312;DHT22;5201;48.776;9.128;2022-07-11T05:45:43;18.50;99.90
10312;DHT22;5201;48.776;9.128;2022-07-11T05:48:09;18.60;99.90
10312;DHT22;5201;48.776;9.128;2022-07-11T05:50:35;18.70;99.90
10312;DHT22;5201;48.776;9.128;2022-07-11T05:53:01;18.80;99.90
10312;DHT22;5201;48.776;9.128;2022-07-11T05:55:28;18.80;99.90
10312;DHT22;5201;48.776;9.128;2022-07-11T05:57:54;18.80;99.90
10312;DHT22;5201;48.776;9.128;2022-07-11T06:00:19;18.80;99.90
10312;DHT22;5201;48.776;9.128;2022-07-11T06:02:48;18.80;99.90
10312;DHT22;5201;48.776;9.128;2022-07-11T06:05:13;18.90;99.90
10312;DHT22;5201;48.776;9.128;2022-07-11T06:07:39;18.90;99.90
10312;DHT22;5201;48.776;9.128;2022-07-11T06:10:23;18.90;99.90
10312;DHT22;5201;48.776;9.128;2022-07-11T06:12:49;19.00;99.90
10312;DHT22;5201;48.776;9.128;2022-07-11T06:15:15;18.90;99.90
10312;DHT22;5201;48.776;9.128;2022-07-11T06:17:40;18.90;99.90
10312;DHT22;5201;48.776;9.128;2022-07-11T06:20:07;18.90;99.90
10312;DHT22;5201;48.776;9.128;2022-07-11T06:22:33;18.90;99.90
10312;DHT22;5201;48.776;9.128;2022-07-11T06:24:59;18.90;99.90
10312;DHT22;5201;48.776;9.128;2022-07-11T06:27:24;18.90;99.90
10312;DHT22;5201;48.776;9.128;2022-07-11T06:29:50;18.80;99.90
10312;DHT22;5201;48.776;9.128;2022-07-11T06:32:16;18.80;99.90
10312;DHT22;5201;48.776;9.128;2022-07-11T06:34:41;18.80;99.90
10312;DHT22;5201;48.776;9.128;2022-07-11T06:37:07;18.80;99.90
10312;DHT22;5201;48.776;9.128;2022-07-11T06:39:33;18.90;99.90
10312;DHT22;5201;48.776;9.128;2022-07-11T06:41:59;18.90;99.90
10312;DHT22;5201;48.776;9.128;2022-07-11T06:44:24;18.90;99.90
10312;DHT22;5201;48.776;9.128;2022-07-11T06:46:50;18.90;99.90
10312;DHT22;5201;48.776;9.128;2022-07-11T06:49:17;19.00;99.90
10312;DHT22;5201;48.776;9.128;2022-07-11T06:51:43;19.00;99.90
10312;DHT22;5201;48.776;9.128;2022-07-11T06:54:08;19.10;99.90
10312;DHT22;5201;48.776;9.128;2022-07-11T06:56:34;19.10;99.90
10312;DHT22;5201;48.776;9.128;2022-07-11T06:58:59;19.20;99.90
10312;DHT22;5201;48.776;9.128;2022-07-11T07:01:25;19.40;99.90
10312;DHT22;5201;48.776;9.128;2022-07-11T07:03:50;19.20;99.90
10312;DHT22;5201;48.776;9.128;2022-07-11T07:06:16;19.30;99.90
10312;DHT22;5201;48.776;9.128;2022-07-11T07:08:42;19.40;99.90
10312;DHT22;5201;48.776;9.128;2022-07-11T07:11:08;19.40;99.80
10312;DHT22;5201;48.776;9.128;2022-07-11T07:13:33;19.60;99.90
10312;DHT22;5201;48.776;9.128;2022-07-11T07:15:59;19.80;99.90
10312;DHT22;5201;48.776;9.128;2022-07-11T07:18:25;20.10;99.90
10312;DHT22;5201;48.776;9.128;2022-07-11T07:20:51;20.30;99.50
10312;DHT22;5201;48.776;9.128;2022-07-11T07:23:17;20.50;98.70
10312;DHT22;5201;48.776;9.128;2022-07-11T07:25:43;20.60;97.90
10312;DHT22;5201;48.776;9.128;2022-07-11T07:28:09;20.30;98.40
10312;DHT22;5201;48.776;9.128;2022-07-11T07:30:34;20.60;98.80
10312;DHT22;5201;48.776;9.128;2022-07-11T07:33:00;20.90;98.50
10312;DHT22;5201;48.776;9.128;2022-07-11T07:35:27;21.30;97.30
10312;DHT22;5201;48.776;9.128;2022-07-11T07:37:53;21.60;97.40
10312;DHT22;5201;48.776;9.128;2022-07-11T07:40:18;22.00;97.20
10312;DHT22;5201;48.776;9.128;2022-07-11T07:42:44;22.40;96.20
10312;DHT22;5201;48.776;9.128;2022-07-11T07:45:10;22.50;95.80
10312;DHT22;5201;48.776;9.128;2022-07-11T07:47:36;22.90;95.60
10312;DHT22;5201;48.776;9.128;2022-07-11T07:50:04;23.30;94.80
10312;DHT22;5201;48.776;9.128;2022-07-11T07:52:29;23.60;94.30
10312;DHT22;5201;48.776;9.128;2022-07-11T07:54:55;24.20;93.30
10312;DHT22;5201;48.776;9.128;2022-07-11T07:57:21;24.40;92.90
10312;DHT22;5201;48.776;9.128;2022-07-11T07:59:46;24.50;92.90
10312;DHT22;5201;48.776;9.128;2022-07-11T08:02:12;24.50;92.70
10312;DHT22;5201;48.776;9.128;2022-07-11T08:04:37;24.60;92.70
10312;DHT22;5201;48.776;9.128;2022-07-11T08:07:03;24.80;91.90
10312;DHT22;5201;48.776;9.128;2022-07-11T08:09:29;24.80;92.20
10312;DHT22;5201;48.776;9.128;2022-07-11T08:11:55;24.60;91.20
10312;DHT22;5201;48.776;9.128;2022-07-11T08:14:21;24.40;91.70
10312;DHT22;5201;48.776;9.128;2022-07-11T08:16:47;24.30;91.30
10312;DHT22;5201;48.776;9.128;2022-07-11T08:19:13;24.30;92.10
10312;DHT22;5201;48.776;9.128;2022-07-11T08:21:39;24.40;90.90
10312;DHT22;5201;48.776;9.128;2022-07-11T08:24:05;24.80;92.40
10312;DHT22;5201;48.776;9.128;2022-07-11T08:26:31;24.80;90.70
10312;DHT22;5201;48.776;9.128;2022-07-11T08:28:57;25.40;90.60
10312;DHT22;5201;48.776;9.128;2022-07-11T08:31:24;25.00;90.40
10312;DHT22;5201;48.776;9.128;2022-07-11T08:33:49;25.70;91.30
10312;DHT22;5201;48.776;9.128;2022-07-11T08:36:16;26.60;89.50
10312;DHT22;5201;48.776;9.128;2022-07-11T08:38:42;26.70;88.90
10312;DHT22;5201;48.776;9.128;2022-07-11T08:41:13;26.80;89.40
10312;DHT22;5201;48.776;9.128;2022-07-11T08:43:40;27.00;88.70
10312;DHT22;5201;48.776;9.128;2022-07-11T08:46:08;26.50;85.00
10312;DHT22;5201;48.776;9.128;2022-07-11T08:48:33;25.90;88.80
10312;DHT22;5201;48.776;9.128;2022-07-11T08:51:00;26.30;87.70
10312;DHT22;5201;48.776;9.128;2022-07-11T08:53:26;26.60;83.10
10312;DHT22;5201;48.776;9.128;2022-07-11T08:55:53;26.20;82.90
10312;DHT22;5201;48.776;9.128;2022-07-11T08:58:20;26.70;84.40
10312;DHT22;5201;48.776;9.128;2022-07-11T09:00:48;27.20;80.70
10312;DHT22;5201;48.776;9.128;2022-07-11T09:03:15;26.70;82.10
10312;DHT22;5201;48.776;9.128;2022-07-11T09:05:42;26.30;83.40
10312;DHT22;5201;48.776;9.128;2022-07-11T09:08:08;25.80;84.00
10312;DHT22;5201;48.776;9.128;2022-07-11T09:10:38;25.50;86.90
10312;DHT22;5201;48.776;9.128;2022-07-11T09:13:07;25.40;86.30
10312;DHT22;5201;48.776;9.128;2022-07-11T09:18:00;26.30;83.30
10312;DHT22;5201;48.776;9.128;2022-07-11T09:20:26;26.30;84.40
10312;DHT22;5201;48.776;9.128;2022-07-11T09:23:21;26.10;84.20
10312;DHT22;5201;48.776;9.128;2022-07-11T09:26:05;25.70;85.60
10312;DHT22;5201;48.776;9.128;2022-07-11T09:28:31;25.40;83.20
10312;DHT22;5201;48.776;9.128;2022-07-11T09:30:56;25.30;84.50
10312;DHT22;5201;48.776;9.128;2022-07-11T09:33:22;25.10;84.60
10312;DHT22;5201;48.776;9.128;2022-07-11T09:35:48;24.80;84.80
10312;DHT22;5201;48.776;9.128;2022-07-11T09:38:15;24.70;88.40
10312;DHT22;5201;48.776;9.128;2022-07-11T09:40:48;25.30;89.40
10312;DHT22;5201;48.776;9.128;2022-07-11T09:43:14;26.10;87.40
10312;DHT22;5201;48.776;9.128;2022-07-11T09:45:48;26.80;83.80
10312;DHT22;5201;48.776;9.128;2022-07-11T09:48:14;27.20;82.60
10312;DHT22;5201;48.776;9.128;2022-07-11T09:50:40;27.10;83.50
10312;DHT22;5201;48.776;9.128;2022-07-11T09:53:19;26.70;82.90
10312;DHT22;5201;48.776;9.128;2022-07-11T09:55:46;26.40;84.30
10312;DHT22;5201;48.776;9.128;2022-07-11T09:58:13;26.10;84.70
10312;DHT22;5201;48.776;9.128;2022-07-11T10:00:40;25.70;84.80
10312;DHT22;5201;48.776;9.128;2022-07-11T10:03:07;25.40;86.00
10312;DHT22;5201;48.776;9.128;2022-07-11T10:05:34;25.50;86.00
10312;DHT22;5201;48.776;9.128;2022-07-11T10:08:01;25.60;84.90
10312;DHT22;5201;48.776;9.128;2022-07-11T10:10:27;25.50;85.90
10312;DHT22;5201;48.776;9.128;2022-07-11T10:12:54;25.50;85.60
10312;DHT22;5201;48.776;9.128;2022-07-11T10:15:23;25.50;85.00
10312;DHT22;5201;48.776;9.128;2022-07-11T10:20:56;25.30;86.50
10312;DHT22;5201;48.776;9.128;2022-07-11T10:23:51;25.10;84.20
10312;DHT22;5201;48.776;9.128;2022-07-11T10:28:55;24.80;86.00
10312;DHT22;5201;48.776;9.128;2022-07-11T10:31:24;24.60;86.30
10312;DHT22;5201;48.776;9.128;2022-07-11T10:34:11;24.40;86.00
10312;DHT22;5201;48.776;9.128;2022-07-11T10:36:44;24.80;88.70
10312;DHT22;5201;48.776;9.128;2022-07-11T10:39:19;25.50;86.40
10312;DHT22;5201;48.776;9.128;2022-07-11T10:41:53;25.90;83.80
10312;DHT22;5201;48.776;9.128;2022-07-11T10:44:19;26.10;84.80
10312;DHT22;5201;48.776;9.128;2022-07-11T10:46:45;26.40;82.70
10312;DHT22;5201;48.776;9.128;2022-07-11T10:59:22;25.60;83.70
10312;DHT22;5201;48.776;9.128;2022-07-11T11:02:10;25.50;82.50
10312;DHT22;5201;48.776;9.128;2022-07-11T11:07:39;25.20;85.40
10312;DHT22;5201;48.776;9.128;2022-07-11T11:15:49;25.20;86.90
10312;DHT22;5201;48.776;9.128;2022-07-11T11:23:41;25.10;85.50
10312;DHT22;5201;48.776;9.128;2022-07-11T11:26:16;25.20;86.20
10312;DHT22;5201;48.776;9.128;2022-07-11T11:29:02;25.40;86.60
10312;DHT22;5201;48.776;9.128;2022-07-11T11:31:30;25.80;85.70
10312;DHT22;5201;48.776;9.128;2022-07-11T11:33:58;25.70;84.20
10312;DHT22;5201;48.776;9.128;2022-07-11T11:36:25;25.80;84.90
10312;DHT22;5201;48.776;9.128;2022-07-11T11:38:51;25.80;83.80
10312;DHT22;5201;48.776;9.128;2022-07-11T11:41:27;25.80;85.70
10312;DHT22;5201;48.776;9.128;2022-07-11T11:43:58;25.90;84.60
10312;DHT22;5201;48.776;9.128;2022-07-11T11:46:25;25.70;84.20
10312;DHT22;5201;48.776;9.128;2022-07-11T11:48:55;25.60;84.80
10312;DHT22;5201;48.776;9.128;2022-07-11T11:51:21;25.40;84.40
10312;DHT22;5201;48.776;9.128;2022-07-11T11:53:50;25.20;85.70
10312;DHT22;5201;48.776;9.128;2022-07-11T11:56:24;25.00;86.90
10312;DHT22;5201;48.776;9.128;2022-07-11T11:58:56;25.00;87.10
10312;DHT22;5201;48.776;9.128;2022-07-11T12:01:30;25.20;86.60
10312;DHT22;5201;48.776;9.128;2022-07-11T12:04:03;25.30;85.30
10312;DHT22;5201;48.776;9.128;2022-07-11T12:06:37;25.20;85.90
10312;DHT22;5201;48.776;9.128;2022-07-11T12:09:12;25.10;85.10
10312;DHT22;5201;48.776;9.128;2022-07-11T12:11:39;24.90;87.00
10312;DHT22;5201;48.776;9.128;2022-07-11T12:14:06;25.00;87.00
10312;DHT22;5201;48.776;9.128;2022-07-11T12:16:34;25.10;86.50
10312;DHT22;5201;48.776;9.128;2022-07-11T12:19:17;25.00;86.00
10312;DHT22;5201;48.776;9.128;2022-07-11T12:21:46;24.70;87.20
10312;DHT22;5201;48.776;9.128;2022-07-11T12:24:16;24.70;88.20
10312;DHT22;5201;48.776;9.128;2022-07-11T12:26:43;24.60;87.70
10312;DHT22;5201;48.776;9.128;2022-07-11T12:29:23;24.60;87.40
10312;DHT22;5201;48.776;9.128;2022-07-11T12:31:50;24.60;89.70
10312;DHT22;5201;48.776;9.128;2022-07-11T12:37:08;24.80;88.90
10312;DHT22;5201;48.776;9.128;2022-07-11T12:39:36;24.90;89.10
10312;DHT22;5201;48.776;9.128;2022-07-11T12:42:24;24.90;87.20
10312;DHT22;5201;48.776;9.128;2022-07-11T12:45:04;24.80;88.00
10312;DHT22;5201;48.776;9.128;2022-07-11T12:47:37;24.70;88.80
10312;DHT22;5201;48.776;9.128;2022-07-11T12:50:15;24.70;88.60
10312;DHT22;5201;48.776;9.128;2022-07-11T12:52:43;24.60;88.20
10312;DHT22;5201;48.776;9.128;2022-07-11T13:00:29;24.70;89.30
10312;DHT22;5201;48.776;9.128;2022-07-11T13:02:55;24.60;88.30
10312;DHT22;5201;48.776;9.128;2022-07-11T13:05:21;24.70;87.30
10312;DHT22;5201;48.776;9.128;2022-07-11T13:07:46;24.70;87.60
10312;DHT22;5201;48.776;9.128;2022-07-11T13:10:30;24.60;88.70
10312;DHT22;5201;48.776;9.128;2022-07-11T13:13:17;24.60;89.30
10312;DHT22;5201;48.776;9.128;2022-07-11T13:15:44;24.60;87.90
10312;DHT22;5201;48.776;9.128;2022-07-11T13:18:12;24.60;88.30
10312;DHT22;5201;48.776;9.128;2022-07-11T13:20:39;24.60;87.80
10312;DHT22;5201;48.776;9.128;2022-07-11T13:23:05;24.30;87.20
10312;DHT22;5201;48.776;9.128;2022-07-11T13:25:32;24.20;88.30
10312;DHT22;5201;48.776;9.128;2022-07-11T13:27:57;24.30;87.80
10312;DHT22;5201;48.776;9.128;2022-07-11T13:30:24;24.50;90.00
10312;DHT22;5201;48.776;9.128;2022-07-11T13:32:54;24.60;89.40
10312;DHT22;5201;48.776;9.128;2022-07-11T13:35:20;24.70;87.70
10312;DHT22;5201;48.776;9.128;2022-07-11T13:37:46;24.70;88.40
10312;DHT22;5201;48.776;9.128;2022-07-11T13:40:17;24.80;88.70
10312;DHT22;5201;48.776;9.128;2022-07-11T13:42:44;24.80;89.60
10312;DHT22;5201;48.776;9.128;2022-07-11T13:45:12;24.90;88.50
10312;DHT22;5201;48.776;9.128;2022-07-11T13:47:38;24.90;87.80
10312;DHT22;5201;48.776;9.128;2022-07-11T13:50:04;25.00;87.70
10312;DHT22;5201;48.776;9.128;2022-07-11T13:52:30;25.00;88.30
10312;DHT22;5201;48.776;9.128;2022-07-11T13:54:56;25.10;87.70
10312;DHT22;5201;48.776;9.128;2022-07-11T13:57:22;24.90;88.80
10312;DHT22;5201;48.776;9.128;2022-07-11T13:59:48;24.80;88.00
10312;DHT22;5201;48.776;9.128;2022-07-11T14:02:14;24.70;88.20
10312;DHT22;5201;48.776;9.128;2022-07-11T14:04:40;24.70;87.70
10312;DHT22;5201;48.776;9.128;2022-07-11T14:07:07;24.70;88.20
10312;DHT22;5201;48.776;9.128;2022-07-11T14:09:33;24.80;89.90
10312;DHT22;5201;48.776;9.128;2022-07-11T14:11:59;24.90;89.70
10312;DHT22;5201;48.776;9.128;2022-07-11T14:14:25;24.90;89.60
10312;DHT22;5201;48.776;9.128;2022-07-11T14:16:51;24.90;88.00
10312;DHT22;5201;48.776;9.128;2022-07-11T14:19:17;24.80;88.10
10312;DHT22;5201;48.776;9.128;2022-07-11T14:21:43;24.70;89.50
10312;DHT22;5201;48.776;9.128;2022-07-11T14:24:08;24.60;88.60
10312;DHT22;5201;48.776;9.128;2022-07-11T14:26:34;24.60;89.10
10312;DHT22;5201;48.776;9.128;2022-07-11T14:29:02;24.70;88.90
10312;DHT22;5201;48.776;9.128;2022-07-11T14:31:28;24.70;89.90
10312;DHT22;5201;48.776;9.128;2022-07-11T14:33:54;24.70;89.90
10312;DHT22;5201;48.776;9.128;2022-07-11T14:36:21;24.60;88.90
10312;DHT22;5201;48.776;9.128;2022-07-11T14:38:47;24.50;89.30
10312;DHT22;5201;48.776;9.128;2022-07-11T14:41:14;24.50;89.30
10312;DHT22;5201;48.776;9.128;2022-07-11T14:43:41;24.50;89.80
10312;DHT22;5201;48.776;9.128;2022-07-11T14:46:06;24.50;90.20
10312;DHT22;5201;48.776;9.128;2022-07-11T14:48:32;24.60;90.40
10312;DHT22;5201;48.776;9.128;2022-07-11T14:50:58;24.50;89.80
10312;DHT22;5201;48.776;9.128;2022-07-11T14:53:24;24.60;90.20
10312;DHT22;5201;48.776;9.128;2022-07-11T14:55:51;24.50;89.80
10312;DHT22;5201;48.776;9.128;2022-07-11T14:58:16;24.50;89.40
10312;DHT22;5201;48.776;9.128;2022-07-11T15:00:42;24.60;89.10
10312;DHT22;5201;48.776;9.128;2022-07-11T15:03:12;24.60;90.10
10312;DHT22;5201;48.776;9.128;2022-07-11T15:05:57;24.40;90.10
10312;DHT22;5201;48.776;9.128;2022-07-11T15:08:24;24.40;90.10
10312;DHT22;5201;48.776;9.128;2022-07-11T15:11:08;24.40;90.30
10312;DHT22;5201;48.776;9.128;2022-07-11T15:13:53;24.40;90.20
10312;DHT22;5201;48.776;9.128;2022-07-11T15:16:19;24.60;90.20
10312;DHT22;5201;48.776;9.128;2022-07-11T15:18:45;24.40;90.20
10312;DHT22;5201;48.776;9.128;2022-07-11T15:21:11;24.40;89.80
10312;DHT22;5201;48.776;9.128;2022-07-11T15:23:37;24.40;90.40
10312;DHT22;5201;48.776;9.128;2022-07-11T15:26:03;24.50;90.20
10312;DHT22;5201;48.776;9.128;2022-07-11T15:28:29;24.50;90.10
10312;DHT22;5201;48.776;9.128;2022-07-11T15:30:54;24.50;90.30
10312;DHT22;5201;48.776;9.128;2022-07-11T15:33:20;24.50;90.30
10312;DHT22;5201;48.776;9.128;2022-07-11T15:35:50;24.60;90.30
10312;DHT22;5201;48.776;9.128;2022-07-11T15:38:16;24.70;89.70
10312;DHT22;5201;48.776;9.128;2022-07-11T15:40:42;24.70;90.20
10312;DHT22;5201;48.776;9.128;2022-07-11T15:43:07;24.80;88.30
10312;DHT22;5201;48.776;9.128;2022-07-11T15:45:33;24.70;88.10
10312;DHT22;5201;48.776;9.128;2022-07-11T15:47:59;24.70;88.20
10312;DHT22;5201;48.776;9.128;2022-07-11T15:50:25;24.60;88.30
10312;DHT22;5201;48.776;9.128;2022-07-11T15:52:50;24.50;89.20
10312;DHT22;5201;48.776;9.128;2022-07-11T15:55:16;24.50;89.50
10312;DHT22;5201;48.776;9.128;2022-07-11T15:57:42;24.50;88.90
10312;DHT22;5201;48.776;9.128;2022-07-11T16:00:08;24.60;89.60
10312;DHT22;5201;48.776;9.128;2022-07-11T16:02:34;24.70;89.40
10312;DHT22;5201;48.776;9.128;2022-07-11T16:05:00;24.70;89.20
10312;DHT22;5201;48.776;9.128;2022-07-11T16:07:26;24.70;89.40
10312;DHT22;5201;48.776;9.128;2022-07-11T16:09:51;24.60;89.10
10312;DHT22;5201;48.776;9.128;2022-07-11T16:12:17;24.50;88.90
10312;DHT22;5201;48.776;9.128;2022-07-11T16:14:43;24.50;89.40
10312;DHT22;5201;48.776;9.128;2022-07-11T16:17:08;24.40;89.50
10312;DHT22;5201;48.776;9.128;2022-07-11T16:19:34;24.30;90.20
10312;DHT22;5201;48.776;9.128;2022-07-11T16:22:01;24.40;89.60
10312;DHT22;5201;48.776;9.128;2022-07-11T16:24:28;24.30;89.40
10312;DHT22;5201;48.776;9.128;2022-07-11T16:26:54;24.20;89.80
10312;DHT22;5201;48.776;9.128;2022-07-11T16:29:19;24.10;90.20